Time;durP1;ratioP1;P1;durP2;ratioP2;P2;SDS_P1;SDS_P2;PMS_P1;PMS_P2;Temp;Humidity;BMP_temperature;BMP_pressure;BME280_temperature;BME280_humidity;BME280_pressure;Samples;Min_cycle;Max_cycle;Signal;HPM_P1;HPM_P2
2022/11/01 00:01:29;;;;;;;0.50;0.50;;;;;;;9.73;96.52;100823.06;5065300;28;20056;-67
2022/11/01 00:03:55;;;;;;;0.40;0.40;;;;;;;9.66;96.73;100822.19;5065559;28;20074;-67
2022/11/01 00:06:20;;;;;;;0.40;0.40;;;;;;;9.66;96.95;100817.00;5065418;28;20052;-66
2022/11/01 00:08:46;;;;;;;0.40;0.40;;;;;;;9.64;96.83;100819.56;5065614;28;20025;-67
2022/11/01 00:11:14;;;;;;;0.40;0.40;;;;;;;9.70;96.41;100825.63;5065196;28;20021;-66
2022/11/01 00:13:40;;;;;;;0.52;0.52;;;;;;;9.75;96.39;100818.72;5065412;28;20070;-67
2022/11/01 00:16:06;;;;;;;0.55;0.55;;;;;;;9.77;96.00;100817.00;5065645;28;20044;-68
2022/11/01 00:18:31;;;;;;;0.50;0.50;;;;;;;9.89;95.49;100808.34;5065424;28;20481;-68
2022/11/01 00:20:56;;;;;;;0.43;0.43;;;;;;;9.77;95.79;100801.44;5065465;28;20032;-68
2022/11/01 00:23:22;;;;;;;0.40;0.40;;;;;;;9.95;94.92;100800.59;5065324;28;20508;-68
2022/11/01 00:25:47;;;;;;;0.80;0.80;;;;;;;9.76;95.26;100803.16;5065124;28;20029;-66
2022/11/01 00:28:13;;;;;;;0.40;0.40;;;;;;;9.65;95.73;100787.59;5065183;28;20137;-67
2022/11/01 00:30:39;;;;;;;1.48;1.40;;;;;;;9.64;95.81;100796.25;5065186;28;20036;-69
2022/11/01 00:33:04;;;;;;;2.15;1.95;;;;;;;9.57;96.24;100791.91;5065264;28;20048;-67
2022/11/01 00:35:31;;;;;;;0.40;0.40;;;;;;;9.52;96.54;100786.72;5064995;28;20048;-67
2022/11/01 00:37:57;;;;;;;0.55;0.55;;;;;;;9.48;96.96;100789.28;5065361;28;20049;-68
2022/11/01 00:40:22;;;;;;;0.40;0.40;;;;;;;9.42;97.35;100791.00;5064718;28;20105;-66
2022/11/01 00:42:48;;;;;;;0.40;0.40;;;;;;;9.44;97.19;100782.38;5065174;28;20032;-68
2022/11/01 00:45:13;;;;;;;0.75;0.75;;;;;;;9.38;97.05;100765.94;5064954;28;20025;-66
2022/11/01 00:47:38;;;;;;;0.40;0.40;;;;;;;9.45;96.70;100765.97;5065142;28;20029;-67
2022/11/01 00:50:04;;;;;;;0.85;0.85;;;;;;;9.45;97.05;100763.38;5065025;28;20021;-68
2022/11/01 00:52:30;;;;;;;0.57;0.57;;;;;;;9.50;96.58;100759.06;5063770;28;20021;-68
2022/11/01 00:54:55;;;;;;;3.17;2.88;;;;;;;9.47;96.86;100766.84;5064679;28;20055;-66
2022/11/01 00:57:20;;;;;;;0.40;0.40;;;;;;;9.42;97.22;100765.09;5064934;28;20029;-67
2022/11/01 00:59:46;;;;;;;0.60;0.60;;;;;;;9.38;97.40;100758.19;5064928;28;20112;-63
2022/11/01 01:02:11;;;;;;;0.40;0.40;;;;;;;9.58;96.60;100757.34;5064822;28;20092;-67
2022/11/01 01:04:41;;;;;;;0.85;0.85;;;;;;;9.51;96.65;100747.81;5065209;28;20116;-67
2022/11/01 01:07:06;;;;;;;0.50;0.50;;;;;;;9.55;96.37;100741.81;5066454;28;20029;-68
2022/11/01 01:09:32;;;;;;;0.60;0.60;;;;;;;9.53;96.50;100733.16;5068622;28;20028;-66
2022/11/01 01:11:58;;;;;;;0.40;0.40;;;;;;;9.53;96.81;100734.03;5068461;28;20021;-67
2022/11/01 01:14:24;;;;;;;0.70;0.70;;;;;;;9.53;96.87;100738.34;5068966;28;20048;-66
2022/11/01 01:16:49;;;;;;;0.38;0.38;;;;;;;9.51;97.00;100738.34;5068750;28;20029;-67
2022/11/01 01:19:14;;;;;;;0.40;0.40;;;;;;;9.48;96.85;100733.16;5068683;28;20031;-67
2022/11/01 01:21:40;;;;;;;0.40;0.40;;;;;;;9.47;96.78;100734.03;5068422;28;20458;-67
2022/11/01 01:24:05;;;;;;;2.65;1.27;;;;;;;9.44;97.07;100735.72;5068541;28;20021;-66
2022/11/01 01:26:30;;;;;;;0.40;0.40;;;;;;;9.53;96.40;100721.06;5068527;28;20358;-67
2022/11/01 01:28:56;;;;;;;0.60;0.60;;;;;;;9.53;96.60;100731.44;5068629;28;20100;-67
2022/11/01 01:31:21;;;;;;;0.65;0.65;;;;;;;9.44;96.91;100730.56;5068117;28;20028;-68
2022/11/01 01:33:46;;;;;;;0.50;0.50;;;;;;;9.49;96.80;100734.03;5068579;28;20020;-67
2022/11/01 01:36:12;;;;;;;0.40;0.40;;;;;;;9.40;97.04;100735.72;5068040;28;20029;-67
2022/11/01 01:38:37;;;;;;;0.57;0.57;;;;;;;9.37;97.63;100724.50;5068142;28;20028;-65
2022/11/01 01:43:46;;;;;;;0.40;0.40;;;;;;;9.42;97.58;100728.81;5068550;28;20086;-66
2022/11/01 01:46:12;;;;;;;0.40;0.40;;;;;;;9.54;97.31;100727.09;5068123;28;20029;-66
2022/11/01 01:48:43;;;;;;;0.40;0.40;;;;;;;9.59;96.89;100725.38;5068040;28;20518;-67
2022/11/01 01:51:14;;;;;;;0.50;0.50;;;;;;;9.58;96.93;100723.66;5067919;28;20028;-66
2022/11/01 01:53:44;;;;;;;0.50;0.50;;;;;;;9.58;97.26;100718.47;5068049;28;20029;-67
2022/11/01 01:56:13;;;;;;;0.40;0.40;;;;;;;9.63;97.36;100708.94;5067604;28;20088;-67
2022/11/01 01:58:49;;;;;;;3.40;2.67;;;;;;;9.63;97.37;100698.59;5067949;28;20485;-68
2022/11/01 02:01:14;;;;;;;0.40;0.40;;;;;;;9.72;96.96;100700.31;5067523;28;20080;-66
2022/11/01 02:03:41;;;;;;;2.05;1.95;;;;;;;9.65;97.16;100694.28;5067837;28;20036;-66
2022/11/01 02:06:10;;;;;;;0.40;0.40;;;;;;;9.63;97.80;100698.59;5067492;28;20089;-65
2022/11/01 02:08:38;;;;;;;0.43;0.43;;;;;;;9.66;97.61;100696.00;5067445;28;20108;-66
2022/11/01 02:11:05;;;;;;;0.52;0.52;;;;;;;9.69;97.67;100682.19;5067371;28;20065;-65
2022/11/01 02:13:31;;;;;;;0.50;0.50;;;;;;;9.75;97.29;100683.91;5067629;28;20025;-67
2022/11/01 02:16:11;;;;;;;0.40;0.40;;;;;;;9.79;96.65;100668.34;5067549;28;20028;-67
2022/11/01 02:18:55;;;;;;;0.50;0.50;;;;;;;9.92;96.20;100676.97;5066495;28;20044;-67
2022/11/01 02:21:45;;;;;;;0.40;0.40;;;;;;;9.85;96.12;100677.84;5067193;28;20092;-67
2022/11/01 02:24:36;;;;;;;0.40;0.40;;;;;;;9.81;96.74;100667.50;5067459;28;20036;-67
2022/11/01 02:27:13;;;;;;;0.40;0.40;;;;;;;9.77;96.76;100667.50;5067235;28;20032;-68
2022/11/01 02:29:54;;;;;;;0.45;0.45;;;;;;;9.83;96.43;100666.59;5067305;28;20054;-67
2022/11/01 02:32:58;;;;;;;0.40;0.40;;;;;;;9.79;96.96;100665.75;5067101;28;20080;-68
2022/11/01 02:35:41;;;;;;;0.40;0.40;;;;;;;9.87;96.78;100663.13;5067149;28;20029;-66
2022/11/01 02:38:29;;;;;;;0.40;0.40;;;;;;;9.90;96.10;100667.47;5067069;28;20021;-68
2022/11/01 02:41:12;;;;;;;4.78;1.48;;;;;;;9.93;95.83;100662.28;5066806;28;20025;-69
2022/11/01 02:43:58;;;;;;;0.45;0.45;;;;;;;9.89;96.44;100658.81;5067144;28;20017;-67
2022/11/01 02:49:14;;;;;;;0.40;0.40;;;;;;;9.96;95.37;100661.41;5067129;28;20036;-68
2022/11/01 02:51:43;;;;;;;1.45;1.35;;;;;;;9.91;95.84;100659.69;5066808;28;20078;-68
2022/11/01 02:54:17;;;;;;;0.40;0.40;;;;;;;9.91;95.88;100654.50;5066799;28;20055;-67
2022/11/01 02:56:42;;;;;;;0.40;0.40;;;;;;;10.03;95.50;100666.56;5066717;28;20054;-68
2022/11/01 02:59:18;;;;;;;0.60;0.60;;;;;;;9.95;95.41;100664.88;5066899;28;20040;-68
2022/11/01 03:01:52;;;;;;;0.40;0.40;;;;;;;9.88;96.27;100658.81;5066555;28;20045;-67
2022/11/01 03:04:17;;;;;;;0.50;0.50;;;;;;;9.92;95.96;100647.56;5066660;28;20031;-66
2022/11/01 03:06:50;;;;;;;0.40;0.40;;;;;;;9.88;96.53;100658.81;5066445;28;20449;-68
2022/11/01 03:09:16;;;;;;;0.47;0.47;;;;;;;9.90;96.16;100650.16;5066551;28;20025;-68
2022/11/01 03:12:28;;;;;;;0.40;0.40;;;;;;;9.94;96.48;100648.44;5066016;28;20102;-66
2022/11/01 03:15:19;;;;;;;0.50;0.50;;;;;;;9.89;96.35;100648.44;5066647;28;20025;-68
2022/11/01 03:18:03;;;;;;;0.80;0.80;;;;;;;9.95;96.62;100642.41;5066521;28;20029;-67
2022/11/01 03:20:47;;;;;;;0.40;0.40;;;;;;;9.97;96.37;100637.22;5066292;28;20037;-66
2022/11/01 03:23:22;;;;;;;0.40;0.40;;;;;;;9.98;95.97;100638.94;5066270;28;20029;-67
2022/11/01 03:25:54;;;;;;;0.40;0.40;;;;;;;10.26;94.25;100634.53;5066039;28;20021;-69
2022/11/01 03:28:23;;;;;;;0.40;0.40;;;;;;;10.06;95.32;100633.72;5066157;28;20029;-67
2022/11/01 03:31:09;;;;;;;0.40;0.40;;;;;;;9.98;95.57;100628.56;5065890;28;20029;-67
2022/11/01 03:33:39;;;;;;;0.60;0.60;;;;;;;9.95;95.98;100616.47;5065796;28;20033;-68
2022/11/01 03:36:10;;;;;;;0.70;0.70;;;;;;;10.06;95.58;100621.63;5065823;28;20036;-67
2022/11/01 03:38:38;;;;;;;0.40;0.40;;;;;;;10.03;95.72;100626.81;5066163;28;20025;-68
2022/11/01 03:41:10;;;;;;;0.40;0.40;;;;;;;10.04;95.44;100613.84;5065543;28;20025;-67
2022/11/01 03:43:36;;;;;;;0.50;0.50;;;;;;;10.08;95.28;100614.66;5065938;28;20361;-69
2022/11/01 03:46:02;;;;;;;1.17;1.15;;;;;;;10.27;93.86;100604.25;5065743;28;20055;-69
2022/11/01 03:48:27;;;;;;;0.40;0.40;;;;;;;10.16;94.21;100610.34;5065698;28;20147;-68
2022/11/01 03:50:55;;;;;;;0.40;0.40;;;;;;;10.21;94.39;100599.09;5065681;28;20036;-70
2022/11/01 03:53:21;;;;;;;0.40;0.40;;;;;;;10.47;92.21;100600.72;5065989;28;20039;-69
2022/11/01 03:55:46;;;;;;;0.40;0.40;;;;;;;10.13;93.50;100586.13;5065209;28;20021;-66
2022/11/01 03:58:11;;;;;;;0.40;0.40;;;;;;;10.37;91.58;100586.88;5065496;28;20050;-69
2022/11/01 04:00:41;;;;;;;0.40;0.40;;;;;;;10.47;89.44;100582.56;5065707;28;20053;-66
2022/11/01 04:03:09;;;;;;;0.40;0.40;;;;;;;10.32;89.66;100586.91;5065405;28;20489;-69
2022/11/01 04:05:36;;;;;;;0.40;0.40;;;;;;;10.28;90.04;100588.69;5065333;28;20143;-67
2022/11/01 04:08:01;;;;;;;0.40;0.40;;;;;;;10.51;87.73;100587.72;5065509;28;20029;-68
2022/11/01 04:10:30;;;;;;;0.50;0.50;;;;;;;10.53;87.00;100592.91;5065258;28;20466;-69
2022/11/01 04:12:56;;;;;;;0.45;0.45;;;;;;;10.41;87.20;100581.69;5065306;28;20037;-69
2022/11/01 04:21:10;;;;;;;0.40;0.40;;;;;;;10.44;85.82;100586.00;5065172;28;20139;-70
2022/11/01 04:23:36;;;;;;;0.40;0.40;;;;;;;10.36;85.94;100579.97;5065346;28;20093;-70
2022/11/01 04:26:03;;;;;;;0.40;0.40;;;;;;;10.32;85.88;100581.72;5064886;28;20069;-69
2022/11/01 04:28:28;;;;;;;0.40;0.40;;;;;;;10.15;87.00;100559.31;5063788;28;20024;-71
2022/11/01 04:30:54;;;;;;;0.40;0.40;;;;;;;9.95;87.80;100587.94;5065175;28;20498;-68
2022/11/01 04:33:19;;;;;;;0.40;0.40;;;;;;;9.88;89.11;100587.09;5065189;28;20044;-69
2022/11/01 04:35:45;;;;;;;0.40;0.40;;;;;;;9.76;89.48;100576.75;5064992;28;20055;-66
2022/11/01 04:38:11;;;;;;;0.40;0.40;;;;;;;9.84;89.26;100579.31;5065144;28;20074;-67
2022/11/01 04:40:37;;;;;;;0.40;0.40;;;;;;;9.92;88.96;100568.03;5064888;28;20147;-67
2022/11/01 04:43:02;;;;;;;0.40;0.40;;;;;;;9.83;89.91;100562.88;5068302;28;20107;-67
2022/11/01 04:45:28;;;;;;;0.50;0.50;;;;;;;9.78;89.74;100564.63;5069149;28;20052;-65
2022/11/01 04:48:04;;;;;;;0.40;0.40;;;;;;;10.15;87.40;100559.31;5069297;28;20032;-68
2022/11/01 04:50:30;;;;;;;0.40;0.40;;;;;;;9.98;88.04;100558.53;5069227;28;20047;-67
2022/11/01 04:52:59;;;;;;;0.40;0.40;;;;;;;9.91;88.12;100550.75;5069161;28;20064;-66
2022/11/01 04:55:28;;;;;;;0.30;0.30;;;;;;;9.96;88.77;100542.09;5067745;28;20118;-68
2022/11/01 04:57:54;;;;;;;0.40;0.40;;;;;;;10.01;88.54;100550.72;5069076;28;20048;-68
2022/11/01 05:00:21;;;;;;;0.65;0.65;;;;;;;9.89;88.59;100541.25;5068814;28;20558;-65
2022/11/01 05:02:47;;;;;;;0.40;0.40;;;;;;;10.06;87.99;100536.00;5069087;28;20086;-66
2022/11/01 05:05:12;;;;;;;0.50;0.50;;;;;;;9.92;88.32;100529.13;5068812;28;20020;-67
2022/11/01 05:07:38;;;;;;;1.67;1.58;;;;;;;10.03;87.89;100525.66;5069161;28;20036;-68
2022/11/01 05:10:05;;;;;;;0.50;0.50;;;;;;;9.95;88.06;100519.63;5068506;28;20469;-67
2022/11/01 05:12:30;;;;;;;0.40;0.40;;;;;;;10.19;86.48;100523.00;5068680;28;20044;-67
2022/11/01 05:14:56;;;;;;;0.40;0.40;;;;;;;9.92;88.19;100513.56;5068777;28;20017;-67
2022/11/01 05:17:21;;;;;;;0.40;0.40;;;;;;;9.86;88.87;100505.81;5068563;28;20084;-66
2022/11/01 05:19:47;;;;;;;0.40;0.40;;;;;;;9.84;89.00;100493.75;5068677;28;20021;-66
2022/11/01 05:22:12;;;;;;;0.50;0.50;;;;;;;9.95;89.39;100497.16;5068707;28;20028;-68
2022/11/01 05:24:37;;;;;;;0.50;0.50;;;;;;;9.89;89.08;100487.66;5068759;28;20040;-66
2022/11/01 05:27:03;;;;;;;1.73;1.65;;;;;;;10.09;88.41;100473.75;5068198;28;20032;-70
2022/11/01 05:29:28;;;;;;;0.40;0.40;;;;;;;9.98;88.59;100475.53;5068662;28;20021;-66
2022/11/01 05:31:54;;;;;;;0.40;0.40;;;;;;;10.03;88.18;100466.84;5068240;28;20024;-67
2022/11/01 05:34:19;;;;;;;0.60;0.60;;;;;;;10.09;87.21;100484.13;5068373;28;20021;-65
2022/11/01 05:36:44;;;;;;;0.40;0.40;;;;;;;10.30;86.32;100466.72;5068072;28;20028;-69
2022/11/01 05:39:10;;;;;;;1.40;1.30;;;;;;;9.97;87.93;100476.41;5068189;28;20097;-65
2022/11/01 05:41:35;;;;;;;0.40;0.40;;;;;;;10.02;88.27;100466.84;5067976;28;20088;-66
2022/11/01 05:44:00;;;;;;;0.40;0.40;;;;;;;9.94;88.70;100466.03;5068148;28;20051;-66
2022/11/01 05:46:26;;;;;;;0.40;0.40;;;;;;;10.01;88.47;100467.72;5068098;28;20060;-65
2022/11/01 05:48:51;;;;;;;0.40;0.40;;;;;;;9.97;88.62;100471.22;5068133;28;20108;-64
2022/11/01 05:51:16;;;;;;;0.40;0.40;;;;;;;10.14;88.02;100460.75;5068174;28;20036;-64
2022/11/01 05:53:42;;;;;;;0.43;0.43;;;;;;;10.06;88.01;100465.09;5067959;28;20021;-64
2022/11/01 05:56:07;;;;;;;0.40;0.40;;;;;;;10.17;87.33;100448.59;5067651;28;20063;-66
2022/11/01 05:58:32;;;;;;;0.30;0.30;;;;;;;10.01;88.29;100442.66;5068036;28;20040;-65
2022/11/01 06:00:59;;;;;;;0.50;0.50;;;;;;;10.06;87.64;100434.84;5067740;28;20136;-70
2022/11/01 06:03:25;;;;;;;0.93;0.93;;;;;;;10.02;87.92;100426.22;5067875;28;20024;-67
2022/11/01 06:05:50;;;;;;;0.50;0.50;;;;;;;10.19;86.70;100414.03;5067939;28;20031;-67
2022/11/01 06:08:15;;;;;;;0.40;0.40;;;;;;;10.04;86.73;100411.53;5067807;28;20029;-65
2022/11/01 06:10:41;;;;;;;0.90;0.90;;;;;;;9.96;87.42;100402.03;5067396;28;20080;-65
2022/11/01 06:13:06;;;;;;;0.50;0.50;;;;;;;10.11;86.45;100401.09;5067647;28;20020;-68
2022/11/01 06:15:32;;;;;;;0.40;0.40;;;;;;;9.99;86.96;100408.09;5067581;28;20032;-67
2022/11/01 06:17:57;;;;;;;0.40;0.40;;;;;;;10.09;86.75;100403.72;5067619;28;20021;-69
2022/11/01 06:20:25;;;;;;;0.40;0.40;;;;;;;9.92;86.87;100396.88;5067276;28;20055;-65
2022/11/01 06:22:50;;;;;;;0.57;0.57;;;;;;;10.00;86.57;100429.72;5067352;28;20036;-64
2022/11/01 06:25:15;;;;;;;0.40;0.40;;;;;;;9.99;86.43;100402.91;5067131;28;20092;-65
2022/11/01 06:27:41;;;;;;;0.40;0.40;;;;;;;9.98;87.20;100401.19;5067097;28;20116;-68
2022/11/01 06:30:07;;;;;;;0.50;0.50;;;;;;;9.91;86.86;100394.28;5066705;28;20067;-65
2022/11/01 06:32:32;;;;;;;0.40;0.40;;;;;;;9.91;87.34;100402.94;5066975;28;20021;-67
2022/11/01 06:34:58;;;;;;;0.40;0.40;;;;;;;10.05;86.68;100417.56;5067029;28;20023;-66
2022/11/01 06:37:23;;;;;;;0.40;0.40;;;;;;;10.08;86.22;100401.13;5067097;28;20053;-66
2022/11/01 06:39:49;;;;;;;0.40;0.40;;;;;;;10.07;85.97;100397.66;5067302;28;20084;-66
2022/11/01 06:42:14;;;;;;;0.40;0.40;;;;;;;10.12;85.82;100388.13;5066894;28;20032;-66
2022/11/01 06:44:40;;;;;;;0.40;0.40;;;;;;;9.98;86.63;100392.53;5067275;28;20025;-66
2022/11/01 06:47:05;;;;;;;0.40;0.40;;;;;;;9.94;86.99;100391.69;5066877;28;20024;-65
2022/11/01 06:49:30;;;;;;;0.40;0.40;;;;;;;9.94;87.06;100388.22;5067241;28;20475;-65
2022/11/01 06:51:56;;;;;;;0.35;0.35;;;;;;;9.87;87.41;100383.06;5066924;28;20032;-65
2022/11/01 06:54:21;;;;;;;0.40;0.40;;;;;;;10.01;87.48;100385.59;5067205;28;20060;-66
2022/11/01 06:56:47;;;;;;;0.40;0.40;;;;;;;9.96;87.27;100379.56;5066721;28;20039;-65
2022/11/01 06:59:13;;;;;;;0.40;0.40;;;;;;;9.99;87.32;100381.28;5067092;28;20477;-66
2022/11/01 07:01:38;;;;;;;0.40;0.40;;;;;;;10.06;87.46;100377.78;5066548;28;20098;-66
2022/11/01 07:04:03;;;;;;;0.40;0.40;;;;;;;10.02;87.16;100358.78;5066395;28;20469;-65
2022/11/01 07:06:29;;;;;;;0.47;0.47;;;;;;;10.13;86.78;100373.41;5066556;28;20093;-65
2022/11/01 07:08:56;;;;;;;0.50;0.50;;;;;;;10.15;86.28;100362.16;5066809;28;20025;-65
2022/11/01 07:11:21;;;;;;;0.40;0.40;;;;;;;10.12;86.97;100356.13;5066543;28;20025;-67
2022/11/01 07:13:47;;;;;;;0.40;0.40;;;;;;;10.27;86.22;100353.41;5066681;28;20115;-67
2022/11/01 07:16:12;;;;;;;0.40;0.40;;;;;;;10.30;85.55;100360.31;5066453;28;20056;-66
2022/11/01 07:18:37;;;;;;;0.40;0.40;;;;;;;10.15;86.45;100356.09;5066656;28;20025;-66
2022/11/01 07:21:03;;;;;;;0.40;0.40;;;;;;;10.17;86.56;100359.56;5066305;28;20021;-65
2022/11/01 07:23:29;;;;;;;0.40;0.40;;;;;;;10.27;85.64;100350.81;5066418;28;20025;-67
2022/11/01 07:25:54;;;;;;;0.50;0.50;;;;;;;10.43;85.00;100355.03;5066112;28;20035;-65
2022/11/01 07:28:19;;;;;;;0.50;0.50;;;;;;;10.33;85.26;100328.28;5066542;28;20025;-67
2022/11/01 07:30:53;;;;;;;0.43;0.43;;;;;;;10.12;86.67;100338.84;5066088;28;20021;-69
2022/11/01 07:33:18;;;;;;;0.45;0.45;;;;;;;10.20;86.80;100336.19;5066472;28;20044;-70
2022/11/01 07:35:44;;;;;;;0.40;0.40;;;;;;;9.94;87.46;100344.13;5066125;28;20029;-65
2022/11/01 07:38:10;;;;;;;0.50;0.50;;;;;;;10.13;86.79;100340.53;5066260;28;20051;-66
2022/11/01 07:40:36;;;;;;;0.60;0.60;;;;;;;10.16;86.68;100332.75;5066369;28;20029;-64
2022/11/01 07:43:02;;;;;;;0.50;0.50;;;;;;;10.59;84.99;100325.47;5065918;28;20025;-68
2022/11/01 07:45:31;;;;;;;0.40;0.40;;;;;;;10.38;85.54;100332.53;5066097;28;20033;-66
2022/11/01 07:48:04;;;;;;;0.40;0.40;;;;;;;10.14;87.34;100331.88;5066266;28;20031;-67
2022/11/01 07:50:32;;;;;;;0.50;0.50;;;;;;;10.07;87.66;100325.03;5066360;28;20044;-65
2022/11/01 07:53:02;;;;;;;0.40;0.40;;;;;;;10.25;88.00;100325.75;5066087;28;20025;-67
2022/11/01 07:55:28;;;;;;;0.40;0.40;;;;;;;10.19;87.73;100334.47;5065828;28;20029;-65
2022/11/01 07:57:54;;;;;;;0.50;0.50;;;;;;;10.15;88.03;100318.06;5065620;28;20071;-65
2022/11/01 08:00:19;;;;;;;0.40;0.40;;;;;;;10.40;86.82;100317.84;5065578;28;20040;-66
2022/11/01 08:02:45;;;;;;;0.40;0.40;;;;;;;10.25;87.70;100298.09;5065411;28;20025;-66
2022/11/01 08:05:11;;;;;;;0.45;0.45;;;;;;;10.57;86.74;100305.59;5065625;28;20025;-67
2022/11/01 08:07:38;;;;;;;1.83;1.67;;;;;;;10.48;86.33;100304.81;5065537;28;20080;-67
2022/11/01 08:10:08;;;;;;;0.73;0.73;;;;;;;10.34;87.54;100301.44;5065660;28;20088;-67
2022/11/01 08:12:33;;;;;;;0.40;0.40;;;;;;;10.40;87.66;100278.91;5065283;28;20020;-67
2022/11/01 08:14:58;;;;;;;0.50;0.50;;;;;;;10.52;87.34;100280.56;5065664;28;20372;-70
2022/11/01 08:17:24;;;;;;;0.40;0.40;;;;;;;10.47;86.88;100268.50;5064652;28;20025;-65
2022/11/01 08:19:49;;;;;;;1.20;1.20;;;;;;;10.47;87.55;100273.69;5065762;28;20103;-66
2022/11/01 08:22:14;;;;;;;0.40;0.40;;;;;;;10.86;84.65;100281.91;5065366;28;20097;-68
2022/11/01 08:24:40;;;;;;;0.40;0.40;;;;;;;11.10;84.02;100287.69;5065488;28;20055;-69
2022/11/01 08:27:05;;;;;;;0.40;0.40;;;;;;;10.80;85.06;100275.94;5065171;28;20028;-70
2022/11/01 08:29:30;;;;;;;0.40;0.40;;;;;;;10.89;84.61;100273.25;5065374;28;20021;-66
2022/11/01 08:31:56;;;;;;;0.40;0.40;;;;;;;10.90;85.20;100265.44;5065588;28;20028;-67
2022/11/01 08:34:21;;;;;;;0.40;0.40;;;;;;;11.15;83.62;100233.94;5065402;28;20017;-69
2022/11/01 08:36:46;;;;;;;1.05;1.05;;;;;;;10.79;85.41;100259.50;5065326;28;20021;-68
2022/11/01 08:39:12;;;;;;;0.40;0.40;;;;;;;11.18;83.21;100242.56;5065267;28;20531;-69
2022/11/01 08:41:37;;;;;;;0.70;0.70;;;;;;;10.71;85.75;100237.94;5064962;28;20059;-65
2022/11/01 08:44:02;;;;;;;0.40;0.40;;;;;;;11.02;84.80;100238.44;5065248;28;20041;-65
2022/11/01 08:46:28;;;;;;;0.40;0.40;;;;;;;11.22;83.69;100221.72;5065035;28;20024;-65
2022/11/01 08:48:55;;;;;;;0.77;0.77;;;;;;;11.06;84.51;100217.59;5065157;28;20028;-66
2022/11/01 08:51:24;;;;;;;0.40;0.40;;;;;;;11.39;82.74;100237.06;5065183;28;20024;-68
2022/11/01 08:53:56;;;;;;;0.40;0.40;;;;;;;11.29;83.55;100212.09;5065181;28;20036;-67
2022/11/01 08:56:26;;;;;;;0.98;0.98;;;;;;;11.32;83.30;100222.44;5064899;28;20029;-67
2022/11/01 08:58:52;;;;;;;0.50;0.50;;;;;;;11.49;81.70;100209.19;5065079;28;20029;-66
2022/11/01 09:01:19;;;;;;;0.40;0.40;;;;;;;11.56;81.63;100209.09;5064656;28;20071;-68
2022/11/01 09:03:44;;;;;;;0.40;0.40;;;;;;;11.63;81.15;100213.31;5065191;28;20040;-67
2022/11/01 09:06:10;;;;;;;0.40;0.40;;;;;;;11.70;80.82;100207.13;5065042;28;20017;-67
2022/11/01 09:08:35;;;;;;;1.23;1.23;;;;;;;11.76;80.90;100203.56;5065118;28;20381;-69
2022/11/01 09:11:00;;;;;;;0.40;0.40;;;;;;;11.89;80.16;100197.28;5064831;28;20029;-69
2022/11/01 09:13:26;;;;;;;0.68;0.68;;;;;;;11.76;80.43;100198.38;5065209;28;20024;-68
2022/11/01 09:15:51;;;;;;;0.77;0.77;;;;;;;11.73;80.61;100212.28;5064832;28;20075;-65
2022/11/01 09:18:17;;;;;;;0.40;0.40;;;;;;;12.01;79.43;100190.16;5064987;28;20023;-67
2022/11/01 09:20:42;;;;;;;0.40;0.40;;;;;;;12.07;78.53;100195.25;5064699;28;20025;-68
2022/11/01 09:23:07;;;;;;;0.40;0.40;;;;;;;11.95;79.31;100190.28;5064798;28;20112;-68
2022/11/01 09:25:33;;;;;;;0.30;0.30;;;;;;;11.93;78.90;100203.31;5064748;28;20025;-65
2022/11/01 09:27:58;;;;;;;0.60;0.60;;;;;;;11.77;80.15;100197.50;5065950;28;20051;-67
2022/11/01 09:30:24;;;;;;;0.40;0.40;;;;;;;11.98;79.74;100195.41;5068520;28;20104;-68
2022/11/01 09:32:50;;;;;;;0.40;0.40;;;;;;;12.11;78.73;100199.53;5068403;28;20464;-68
2022/11/01 09:35:16;;;;;;;0.50;0.50;;;;;;;12.08;78.73;100199.59;5068416;28;20028;-66
2022/11/01 09:37:42;;;;;;;0.40;0.40;;;;;;;12.10;78.74;100184.81;5068555;28;20024;-68
2022/11/01 09:40:09;;;;;;;0.40;0.40;;;;;;;12.08;78.42;100196.97;5068426;28;20033;-67
2022/11/01 09:42:41;;;;;;;0.40;0.40;;;;;;;11.87;79.55;100205.97;5068194;28;20021;-66
2022/11/01 09:45:30;;;;;;;0.40;0.40;;;;;;;12.06;78.94;100196.09;5068621;28;20082;-67
2022/11/01 09:47:57;;;;;;;0.40;0.40;;;;;;;11.93;79.08;100192.91;5068193;28;20066;-67
2022/11/01 09:50:35;;;;;;;0.40;0.40;;;;;;;11.69;81.05;100199.38;5068205;28;20051;-65
2022/11/01 09:53:05;;;;;;;0.40;0.40;;;;;;;11.99;79.56;100199.72;5068242;28;20024;-66
2022/11/01 09:55:46;;;;;;;0.30;0.30;;;;;;;12.12;78.87;100197.78;5068184;28;20032;-66
2022/11/01 09:58:29;;;;;;;1.38;1.27;;;;;;;12.24;78.48;100188.88;5068024;28;20033;-68
2022/11/01 10:01:11;;;;;;;0.40;0.40;;;;;;;12.05;78.90;100176.19;5067732;28;20059;-67
2022/11/01 10:03:59;;;;;;;0.50;0.50;;;;;;;11.97;79.40;100180.66;5067894;28;20088;-68
2022/11/01 10:06:29;;;;;;;0.40;0.40;;;;;;;12.12;78.79;100175.22;5067723;28;20033;-67
2022/11/01 10:09:32;;;;;;;0.40;0.40;;;;;;;12.19;79.04;100188.13;5067912;28;20056;-68
2022/11/01 10:12:09;;;;;;;0.40;0.40;;;;;;;12.07;78.87;100170.97;5067606;28;20021;-66
2022/11/01 10:15:02;;;;;;;5.97;0.93;;;;;;;12.19;78.42;100169.91;5067953;28;20051;-68
2022/11/01 10:17:43;;;;;;;0.35;0.35;;;;;;;11.96;79.53;100181.56;5067683;28;20025;-66
2022/11/01 10:20:11;;;;;;;3.03;2.78;;;;;;;12.20;78.56;100189.84;5067857;28;20036;-66
2022/11/01 10:22:40;;;;;;;0.40;0.40;;;;;;;12.09;79.01;100198.69;5067503;28;20389;-68
2022/11/01 10:25:21;;;;;;;0.55;0.55;;;;;;;12.30;78.51;100191.38;5067762;28;20040;-68
2022/11/01 10:28:08;;;;;;;0.40;0.40;;;;;;;12.00;79.82;100175.41;5067470;28;20029;-65
2022/11/01 10:30:38;;;;;;;0.40;0.40;;;;;;;12.22;78.81;100178.50;5067434;28;20028;-68
2022/11/01 10:33:16;;;;;;;0.75;0.75;;;;;;;12.19;78.98;100162.94;5067433;28;20021;-67
2022/11/01 10:35:44;;;;;;;0.70;0.70;;;;;;;12.38;77.88;100149.59;5067317;28;20031;-68
2022/11/01 10:38:46;;;;;;;0.40;0.40;;;;;;;12.03;79.94;100147.59;5067558;28;20028;-66
2022/11/01 10:41:35;;;;;;;0.40;0.40;;;;;;;11.99;80.33;100135.53;5054987;28;20041;-64
2022/11/01 10:44:05;;;;;;;0.40;0.40;;;;;;;12.22;79.75;100123.84;5067142;28;20033;-67
2022/11/01 10:46:39;;;;;;;0.40;0.40;;;;;;;12.72;76.74;100146.28;5066731;28;20100;-67
2022/11/01 10:49:13;;;;;;;0.40;0.40;;;;;;;12.37;78.01;100140.91;5066994;28;20421;-66
2022/11/01 10:51:41;;;;;;;0.40;0.40;;;;;;;12.49;77.95;100147.59;5067072;28;20020;-70
2022/11/01 10:54:15;;;;;;;0.40;0.40;;;;;;;12.40;78.01;100142.59;5067148;28;20052;-67
2022/11/01 10:56:44;;;;;;;0.40;0.40;;;;;;;12.25;78.91;100136.81;5066801;28;20053;-67
2022/11/01 10:59:20;;;;;;;0.80;0.80;;;;;;;12.43;77.60;100134.72;5066958;28;20021;-66
2022/11/01 11:01:49;;;;;;;0.40;0.40;;;;;;;12.23;78.57;100135.13;5066453;28;20041;-65
2022/11/01 11:04:16;;;;;;;0.30;0.30;;;;;;;12.31;77.85;100145.38;5066801;28;20076;-65
2022/11/01 11:06:42;;;;;;;0.40;0.40;;;;;;;12.30;78.44;100141.91;5066546;28;20040;-67
2022/11/01 11:09:22;;;;;;;0.43;0.43;;;;;;;12.38;77.86;100139.19;5067007;28;20032;-66
2022/11/01 11:11:49;;;;;;;0.40;0.40;;;;;;;12.54;77.13;100133.66;5066720;28;20021;-66
2022/11/01 11:14:17;;;;;;;0.40;0.40;;;;;;;12.45;77.05;100127.75;5066868;28;20025;-69
2022/11/01 11:16:55;;;;;;;0.40;0.40;;;;;;;12.46;77.64;100131.22;5066518;28;20056;-69
2022/11/01 11:19:23;;;;;;;0.40;0.40;;;;;;;12.30;77.98;100121.09;5066711;28;20025;-67
2022/11/01 11:21:51;;;;;;;0.45;0.45;;;;;;;12.06;79.49;100127.63;5066289;28;20028;-65
2022/11/01 11:24:18;;;;;;;0.40;0.40;;;;;;;12.21;78.98;100113.47;5066455;28;20024;-65
2022/11/01 11:26:45;;;;;;;0.40;0.40;;;;;;;12.15;79.29;100117.06;5066126;28;20044;-65
2022/11/01 11:29:37;;;;;;;0.40;0.40;;;;;;;12.32;78.88;100111.50;5066480;28;20041;-68
2022/11/01 11:32:06;;;;;;;0.50;0.50;;;;;;;12.23;78.92;100107.38;5066387;28;20084;-66
2022/11/01 11:34:33;;;;;;;2.55;2.45;;;;;;;12.20;79.10;100111.78;5066311;28;20296;-67
2022/11/01 11:37:02;;;;;;;0.50;0.50;;;;;;;12.25;78.84;100100.38;5066184;28;20021;-68
2022/11/01 11:39:34;;;;;;;0.40;0.40;;;;;;;12.27;78.62;100103.81;5064861;28;20075;-66
2022/11/01 11:42:17;;;;;;;0.80;0.75;;;;;;;12.35;78.73;100101.03;5066036;28;20052;-67
2022/11/01 11:44:46;;;;;;;0.30;0.30;;;;;;;12.46;78.27;100087.78;5066231;28;20017;-69
2022/11/01 11:47:23;;;;;;;0.40;0.40;;;;;;;12.33;78.88;100096.75;5065804;28;20098;-66
2022/11/01 11:49:52;;;;;;;0.50;0.50;;;;;;;12.14;79.75;100092.78;5066234;28;20031;-66